sensor_id;sensor_type;location;lat;lon;timestamp;P1;durP1;ratioP1;P2;durP2;ratioP2
24389;SDS011;12510;56.468;-3.004;2022-12-18T00:01:44;10.00;;;8.68;;
24389;SDS011;12510;56.468;-3.004;2022-12-18T00:04:15;11.18;;;9.05;;
24389;SDS011;12510;56.468;-3.004;2022-12-18T00:06:44;12.90;;;9.30;;
24389;SDS011;12510;56.468;-3.004;2022-12-18T00:09:10;10.07;;;8.82;;
24389;SDS011;12510;56.468;-3.004;2022-12-18T00:11:36;12.48;;;10.23;;
24389;SDS011;12510;56.468;-3.004;2022-12-18T00:14:02;14.93;;;11.07;;
24389;SDS011;12510;56.468;-3.004;2022-12-18T00:16:28;13.15;;;10.25;;
24389;SDS011;12510;56.468;-3.004;2022-12-18T00:18:57;11.40;;;9.93;;
24389;SDS011;12510;56.468;-3.004;2022-12-18T00:21:23;12.52;;;10.45;;
24389;SDS011;12510;56.468;-3.004;2022-12-18T00:23:49;12.23;;;10.13;;
24389;SDS011;12510;56.468;-3.004;2022-12-18T00:26:17;11.70;;;9.38;;
24389;SDS011;12510;56.468;-3.004;2022-12-18T00:28:43;13.05;;;10.15;;
24389;SDS011;12510;56.468;-3.004;2022-12-18T00:31:11;13.10;;;10.20;;
24389;SDS011;12510;56.468;-3.004;2022-12-18T00:33:37;12.13;;;9.95;;
24389;SDS011;12510;56.468;-3.004;2022-12-18T00:36:03;12.02;;;9.70;;
24389;SDS011;12510;56.468;-3.004;2022-12-18T00:38:31;10.05;;;8.90;;
24389;SDS011;12510;56.468;-3.004;2022-12-18T00:40:57;10.80;;;8.63;;
24389;SDS011;12510;56.468;-3.004;2022-12-18T00:43:24;11.73;;;9.07;;
24389;SDS011;12510;56.468;-3.004;2022-12-18T00:45:51;13.55;;;8.48;;
24389;SDS011;12510;56.468;-3.004;2022-12-18T00:48:17;10.95;;;8.88;;
24389;SDS011;12510;56.468;-3.004;2022-12-18T00:50:43;10.52;;;8.55;;
24389;SDS011;12510;56.468;-3.004;2022-12-18T00:53:09;9.55;;;8.15;;
24389;SDS011;12510;56.468;-3.004;2022-12-18T00:55:36;12.20;;;8.70;;
24389;SDS011;12510;56.468;-3.004;2022-12-18T00:58:02;10.23;;;8.43;;
24389;SDS011;12510;56.468;-3.004;2022-12-18T01:00:28;10.95;;;8.75;;
24389;SDS011;12510;56.468;-3.004;2022-12-18T01:02:55;15.45;;;9.07;;
24389;SDS011;12510;56.468;-3.004;2022-12-18T01:05:21;13.55;;;10.30;;
24389;SDS011;12510;56.468;-3.004;2022-12-18T01:07:47;15.23;;;10.13;;
24389;SDS011;12510;56.468;-3.004;2022-12-18T01:10:13;9.55;;;8.55;;
24389;SDS011;12510;56.468;-3.004;2022-12-18T01:12:39;12.25;;;9.15;;
24389;SDS011;12510;56.468;-3.004;2022-12-18T01:15:06;10.70;;;9.60;;
24389;SDS011;12510;56.468;-3.004;2022-12-18T01:17:32;12.35;;;9.80;;
24389;SDS011;12510;56.468;-3.004;2022-12-18T01:20:00;11.35;;;9.05;;
24389;SDS011;12510;56.468;-3.004;2022-12-18T01:22:26;14.70;;;8.63;;
24389;SDS011;12510;56.468;-3.004;2022-12-18T01:24:52;10.68;;;9.32;;
24389;SDS011;12510;56.468;-3.004;2022-12-18T01:27:21;12.27;;;9.50;;
24389;SDS011;12510;56.468;-3.004;2022-12-18T01:29:47;9.18;;;8.18;;
24389;SDS011;12510;56.468;-3.004;2022-12-18T01:32:14;11.10;;;8.25;;
24389;SDS011;12510;56.468;-3.004;2022-12-18T01:34:40;12.85;;;9.77;;
24389;SDS011;12510;56.468;-3.004;2022-12-18T01:37:06;11.63;;;8.52;;
24389;SDS011;12510;56.468;-3.004;2022-12-18T01:39:32;10.00;;;8.48;;
24389;SDS011;12510;56.468;-3.004;2022-12-18T01:41:59;13.50;;;8.75;;
24389;SDS011;12510;56.468;-3.004;2022-12-18T01:50:07;10.65;;;8.68;;
24389;SDS011;12510;56.468;-3.004;2022-12-18T01:52:34;15.30;;;8.52;;
24389;SDS011;12510;56.468;-3.004;2022-12-18T01:55:01;12.38;;;8.32;;
24389;SDS011;12510;56.468;-3.004;2022-12-18T01:57:29;14.67;;;8.63;;
24389;SDS011;12510;56.468;-3.004;2022-12-18T01:59:57;12.68;;;7.88;;
24389;SDS011;12510;56.468;-3.004;2022-12-18T02:02:24;10.13;;;8.23;;
24389;SDS011;12510;56.468;-3.004;2022-12-18T02:04:52;10.35;;;7.57;;
24389;SDS011;12510;56.468;-3.004;2022-12-18T02:12:20;12.18;;;7.45;;
24389;SDS011;12510;56.468;-3.004;2022-12-18T02:17:18;9.25;;;7.85;;
24389;SDS011;12510;56.468;-3.004;2022-12-18T02:22:27;10.88;;;8.02;;
24389;SDS011;12510;56.468;-3.004;2022-12-18T02:27:25;10.82;;;8.15;;
24389;SDS011;12510;56.468;-3.004;2022-12-18T02:29:52;9.48;;;7.78;;
24389;SDS011;12510;56.468;-3.004;2022-12-18T02:32:21;11.05;;;8.02;;
24389;SDS011;12510;56.468;-3.004;2022-12-18T02:34:48;11.52;;;8.60;;
24389;SDS011;12510;56.468;-3.004;2022-12-18T02:37:18;10.13;;;8.93;;
24389;SDS011;12510;56.468;-3.004;2022-12-18T02:39:46;11.90;;;9.13;;
24389;SDS011;12510;56.468;-3.004;2022-12-18T02:42:14;13.60;;;9.65;;
24389;SDS011;12510;56.468;-3.004;2022-12-18T02:44:44;11.10;;;8.60;;
24389;SDS011;12510;56.468;-3.004;2022-12-18T02:47:12;16.60;;;10.45;;
24389;SDS011;12510;56.468;-3.004;2022-12-18T02:49:49;13.02;;;9.60;;
24389;SDS011;12510;56.468;-3.004;2022-12-18T02:52:33;12.25;;;9.60;;
24389;SDS011;12510;56.468;-3.004;2022-12-18T02:55:15;14.73;;;10.57;;
24389;SDS011;12510;56.468;-3.004;2022-12-18T02:58:04;16.70;;;9.98;;
24389;SDS011;12510;56.468;-3.004;2022-12-18T03:00:37;13.20;;;10.35;;
24389;SDS011;12510;56.468;-3.004;2022-12-18T03:03:06;12.40;;;9.45;;
24389;SDS011;12510;56.468;-3.004;2022-12-18T03:05:36;12.10;;;9.05;;
24389;SDS011;12510;56.468;-3.004;2022-12-18T03:10:35;13.20;;;9.15;;
24389;SDS011;12510;56.468;-3.004;2022-12-18T03:13:12;16.15;;;10.07;;
24389;SDS011;12510;56.468;-3.004;2022-12-18T03:15:42;12.43;;;9.93;;
24389;SDS011;12510;56.468;-3.004;2022-12-18T03:18:13;12.80;;;9.90;;
24389;SDS011;12510;56.468;-3.004;2022-12-18T03:20:41;14.55;;;10.40;;
24389;SDS011;12510;56.468;-3.004;2022-12-18T03:23:15;17.75;;;10.23;;
24389;SDS011;12510;56.468;-3.004;2022-12-18T03:25:46;16.42;;;10.55;;
24389;SDS011;12510;56.468;-3.004;2022-12-18T03:28:16;15.15;;;11.82;;
24389;SDS011;12510;56.468;-3.004;2022-12-18T03:30:43;17.00;;;10.93;;
24389;SDS011;12510;56.468;-3.004;2022-12-18T03:33:11;15.45;;;11.65;;
24389;SDS011;12510;56.468;-3.004;2022-12-18T03:35:42;14.00;;;10.35;;
24389;SDS011;12510;56.468;-3.004;2022-12-18T03:38:11;17.23;;;12.05;;
24389;SDS011;12510;56.468;-3.004;2022-12-18T03:43:16;15.70;;;11.80;;
24389;SDS011;12510;56.468;-3.004;2022-12-18T03:45:43;15.80;;;11.65;;
24389;SDS011;12510;56.468;-3.004;2022-12-18T03:48:26;14.57;;;10.77;;
24389;SDS011;12510;56.468;-3.004;2022-12-18T03:55:50;14.57;;;11.25;;
24389;SDS011;12510;56.468;-3.004;2022-12-18T03:58:18;14.10;;;10.50;;
24389;SDS011;12510;56.468;-3.004;2022-12-18T04:00:55;14.15;;;11.15;;
24389;SDS011;12510;56.468;-3.004;2022-12-18T04:03:22;16.15;;;11.80;;
24389;SDS011;12510;56.468;-3.004;2022-12-18T04:05:49;16.15;;;12.25;;
24389;SDS011;12510;56.468;-3.004;2022-12-18T04:08:18;14.32;;;11.52;;
24389;SDS011;12510;56.468;-3.004;2022-12-18T04:10:54;16.02;;;11.45;;
24389;SDS011;12510;56.468;-3.004;2022-12-18T04:13:22;16.95;;;11.93;;
24389;SDS011;12510;56.468;-3.004;2022-12-18T04:15:48;18.17;;;10.75;;
24389;SDS011;12510;56.468;-3.004;2022-12-18T04:18:15;16.70;;;12.23;;
24389;SDS011;12510;56.468;-3.004;2022-12-18T04:20:42;16.50;;;12.10;;
24389;SDS011;12510;56.468;-3.004;2022-12-18T04:23:10;18.77;;;12.77;;
24389;SDS011;12510;56.468;-3.004;2022-12-18T04:25:36;16.02;;;11.70;;
24389;SDS011;12510;56.468;-3.004;2022-12-18T04:28:10;14.90;;;10.65;;
24389;SDS011;12510;56.468;-3.004;2022-12-18T04:30:37;17.73;;;11.85;;
24389;SDS011;12510;56.468;-3.004;2022-12-18T04:33:08;13.60;;;10.35;;
24389;SDS011;12510;56.468;-3.004;2022-12-18T04:35:34;15.50;;;11.48;;
24389;SDS011;12510;56.468;-3.004;2022-12-18T04:38:00;16.08;;;11.27;;
24389;SDS011;12510;56.468;-3.004;2022-12-18T04:40:26;15.20;;;10.88;;
24389;SDS011;12510;56.468;-3.004;2022-12-18T04:42:52;17.13;;;12.20;;
24389;SDS011;12510;56.468;-3.004;2022-12-18T04:45:19;16.08;;;11.10;;
24389;SDS011;12510;56.468;-3.004;2022-12-18T04:47:45;14.63;;;11.23;;
24389;SDS011;12510;56.468;-3.004;2022-12-18T04:50:11;15.73;;;11.45;;
24389;SDS011;12510;56.468;-3.004;2022-12-18T04:52:37;15.82;;;11.30;;
24389;SDS011;12510;56.468;-3.004;2022-12-18T04:55:03;15.20;;;11.20;;
24389;SDS011;12510;56.468;-3.004;2022-12-18T04:57:29;16.48;;;10.32;;
24389;SDS011;12510;56.468;-3.004;2022-12-18T04:59:55;14.07;;;10.02;;
24389;SDS011;12510;56.468;-3.004;2022-12-18T05:02:21;14.45;;;10.77;;
24389;SDS011;12510;56.468;-3.004;2022-12-18T05:04:47;15.18;;;10.20;;
24389;SDS011;12510;56.468;-3.004;2022-12-18T05:07:13;15.15;;;10.98;;
24389;SDS011;12510;56.468;-3.004;2022-12-18T05:09:39;13.70;;;10.20;;
24389;SDS011;12510;56.468;-3.004;2022-12-18T05:12:05;10.93;;;9.15;;
24389;SDS011;12510;56.468;-3.004;2022-12-18T05:14:31;13.75;;;10.68;;
24389;SDS011;12510;56.468;-3.004;2022-12-18T05:16:57;12.48;;;9.90;;
24389;SDS011;12510;56.468;-3.004;2022-12-18T05:19:23;12.55;;;10.27;;
24389;SDS011;12510;56.468;-3.004;2022-12-18T05:21:49;15.55;;;11.73;;
24389;SDS011;12510;56.468;-3.004;2022-12-18T05:24:15;15.00;;;11.25;;
24389;SDS011;12510;56.468;-3.004;2022-12-18T05:26:41;14.10;;;11.18;;
24389;SDS011;12510;56.468;-3.004;2022-12-18T05:29:07;13.60;;;10.63;;
24389;SDS011;12510;56.468;-3.004;2022-12-18T05:31:33;17.05;;;10.93;;
24389;SDS011;12510;56.468;-3.004;2022-12-18T05:33:59;14.13;;;11.13;;
24389;SDS011;12510;56.468;-3.004;2022-12-18T05:36:25;14.90;;;10.68;;
24389;SDS011;12510;56.468;-3.004;2022-12-18T05:38:51;14.43;;;10.45;;
24389;SDS011;12510;56.468;-3.004;2022-12-18T05:41:17;16.52;;;10.07;;
24389;SDS011;12510;56.468;-3.004;2022-12-18T05:43:43;13.57;;;11.20;;
24389;SDS011;12510;56.468;-3.004;2022-12-18T05:46:13;11.98;;;9.90;;
24389;SDS011;12510;56.468;-3.004;2022-12-18T05:48:39;12.38;;;9.20;;
24389;SDS011;12510;56.468;-3.004;2022-12-18T05:51:06;11.70;;;9.32;;
24389;SDS011;12510;56.468;-3.004;2022-12-18T05:53:33;11.10;;;8.80;;
24389;SDS011;12510;56.468;-3.004;2022-12-18T05:56:00;11.90;;;7.75;;
24389;SDS011;12510;56.468;-3.004;2022-12-18T05:58:26;9.32;;;6.75;;
24389;SDS011;12510;56.468;-3.004;2022-12-18T06:00:52;10.98;;;6.93;;
24389;SDS011;12510;56.468;-3.004;2022-12-18T06:03:18;9.13;;;5.82;;
24389;SDS011;12510;56.468;-3.004;2022-12-18T06:05:44;8.57;;;6.05;;
24389;SDS011;12510;56.468;-3.004;2022-12-18T06:08:11;9.55;;;7.50;;
24389;SDS011;12510;56.468;-3.004;2022-12-18T06:10:37;7.65;;;5.65;;
24389;SDS011;12510;56.468;-3.004;2022-12-18T06:13:03;7.28;;;5.22;;
24389;SDS011;12510;56.468;-3.004;2022-12-18T06:15:29;10.38;;;6.72;;
24389;SDS011;12510;56.468;-3.004;2022-12-18T06:17:56;6.85;;;6.10;;
24389;SDS011;12510;56.468;-3.004;2022-12-18T06:20:22;8.82;;;6.65;;
24389;SDS011;12510;56.468;-3.004;2022-12-18T06:22:48;8.95;;;6.65;;
24389;SDS011;12510;56.468;-3.004;2022-12-18T06:25:14;7.25;;;6.20;;
24389;SDS011;12510;56.468;-3.004;2022-12-18T06:27:40;9.23;;;7.20;;
24389;SDS011;12510;56.468;-3.004;2022-12-18T06:30:07;9.70;;;7.15;;
24389;SDS011;12510;56.468;-3.004;2022-12-18T06:32:33;10.48;;;7.00;;
24389;SDS011;12510;56.468;-3.004;2022-12-18T06:34:59;10.63;;;7.22;;
24389;SDS011;12510;56.468;-3.004;2022-12-18T06:37:25;11.75;;;7.03;;
24389;SDS011;12510;56.468;-3.004;2022-12-18T06:39:52;9.27;;;6.90;;
24389;SDS011;12510;56.468;-3.004;2022-12-18T06:42:18;8.75;;;7.22;;
24389;SDS011;12510;56.468;-3.004;2022-12-18T06:44:44;12.05;;;7.05;;
24389;SDS011;12510;56.468;-3.004;2022-12-18T06:47:10;10.88;;;7.43;;
24389;SDS011;12510;56.468;-3.004;2022-12-18T06:49:36;10.45;;;7.70;;
24389;SDS011;12510;56.468;-3.004;2022-12-18T06:52:02;11.68;;;7.60;;
24389;SDS011;12510;56.468;-3.004;2022-12-18T06:54:28;12.27;;;8.10;;
24389;SDS011;12510;56.468;-3.004;2022-12-18T06:56:54;10.45;;;7.20;;
24389;SDS011;12510;56.468;-3.004;2022-12-18T06:59:20;13.38;;;8.20;;
24389;SDS011;12510;56.468;-3.004;2022-12-18T07:01:46;11.57;;;7.50;;
24389;SDS011;12510;56.468;-3.004;2022-12-18T07:04:12;10.75;;;7.28;;
24389;SDS011;12510;56.468;-3.004;2022-12-18T07:06:38;10.38;;;7.47;;
24389;SDS011;12510;56.468;-3.004;2022-12-18T07:09:04;10.30;;;7.13;;
24389;SDS011;12510;56.468;-3.004;2022-12-18T07:11:32;17.23;;;8.23;;
24389;SDS011;12510;56.468;-3.004;2022-12-18T07:13:59;13.38;;;7.68;;
24389;SDS011;12510;56.468;-3.004;2022-12-18T07:16:25;10.07;;;6.95;;
24389;SDS011;12510;56.468;-3.004;2022-12-18T07:18:53;14.13;;;8.52;;
24389;SDS011;12510;56.468;-3.004;2022-12-18T07:21:19;9.88;;;7.15;;
24389;SDS011;12510;56.468;-3.004;2022-12-18T07:23:46;8.05;;;7.22;;
24389;SDS011;12510;56.468;-3.004;2022-12-18T07:26:14;10.85;;;6.90;;
24389;SDS011;12510;56.468;-3.004;2022-12-18T07:28:40;9.63;;;6.57;;
24389;SDS011;12510;56.468;-3.004;2022-12-18T07:31:09;8.05;;;6.75;;
24389;SDS011;12510;56.468;-3.004;2022-12-18T07:33:36;15.38;;;8.38;;
24389;SDS011;12510;56.468;-3.004;2022-12-18T07:36:02;13.63;;;6.97;;
24389;SDS011;12510;56.468;-3.004;2022-12-18T07:38:30;8.05;;;6.25;;
24389;SDS011;12510;56.468;-3.004;2022-12-18T07:43:28;6.93;;;6.18;;
24389;SDS011;12510;56.468;-3.004;2022-12-18T07:45:54;16.15;;;7.45;;
24389;SDS011;12510;56.468;-3.004;2022-12-18T07:48:20;15.50;;;7.03;;
24389;SDS011;12510;56.468;-3.004;2022-12-18T07:50:47;7.78;;;6.20;;
24389;SDS011;12510;56.468;-3.004;2022-12-18T07:53:13;8.45;;;6.72;;
24389;SDS011;12510;56.468;-3.004;2022-12-18T07:55:40;10.23;;;6.55;;
24389;SDS011;12510;56.468;-3.004;2022-12-18T07:58:07;8.50;;;6.78;;
24389;SDS011;12510;56.468;-3.004;2022-12-18T08:00:33;12.27;;;6.57;;
24389;SDS011;12510;56.468;-3.004;2022-12-18T08:02:59;10.13;;;6.25;;
24389;SDS011;12510;56.468;-3.004;2022-12-18T08:05:25;8.05;;;6.47;;
24389;SDS011;12510;56.468;-3.004;2022-12-18T08:07:52;7.78;;;5.22;;
24389;SDS011;12510;56.468;-3.004;2022-12-18T08:10:18;6.25;;;5.45;;
24389;SDS011;12510;56.468;-3.004;2022-12-18T08:12:44;6.75;;;6.00;;
24389;SDS011;12510;56.468;-3.004;2022-12-18T08:15:10;6.93;;;5.43;;
24389;SDS011;12510;56.468;-3.004;2022-12-18T08:17:36;7.07;;;6.05;;
24389;SDS011;12510;56.468;-3.004;2022-12-18T08:20:02;8.98;;;6.22;;
24389;SDS011;12510;56.468;-3.004;2022-12-18T08:22:28;6.40;;;4.38;;
24389;SDS011;12510;56.468;-3.004;2022-12-18T08:24:55;7.57;;;5.57;;
24389;SDS011;12510;56.468;-3.004;2022-12-18T08:27:21;6.07;;;5.03;;
24389;SDS011;12510;56.468;-3.004;2022-12-18T08:29:47;9.23;;;4.95;;
24389;SDS011;12510;56.468;-3.004;2022-12-18T08:32:13;7.07;;;6.07;;
24389;SDS011;12510;56.468;-3.004;2022-12-18T08:34:39;6.38;;;5.55;;
24389;SDS011;12510;56.468;-3.004;2022-12-18T08:37:05;7.05;;;5.63;;
24389;SDS011;12510;56.468;-3.004;2022-12-18T08:39:31;8.55;;;6.57;;
24389;SDS011;12510;56.468;-3.004;2022-12-18T08:41:57;11.25;;;6.63;;
24389;SDS011;12510;56.468;-3.004;2022-12-18T08:44:41;7.30;;;6.28;;
24389;SDS011;12510;56.468;-3.004;2022-12-18T08:47:08;8.10;;;5.95;;
24389;SDS011;12510;56.468;-3.004;2022-12-18T08:49:34;7.88;;;5.45;;
24389;SDS011;12510;56.468;-3.004;2022-12-18T08:52:00;6.43;;;5.70;;
24389;SDS011;12510;56.468;-3.004;2022-12-18T08:54:28;7.57;;;6.13;;
24389;SDS011;12510;56.468;-3.004;2022-12-18T08:56:54;6.97;;;5.50;;
24389;SDS011;12510;56.468;-3.004;2022-12-18T08:59:20;8.77;;;6.10;;
24389;SDS011;12510;56.468;-3.004;2022-12-18T09:01:46;10.93;;;6.22;;
24389;SDS011;12510;56.468;-3.004;2022-12-18T09:04:13;7.88;;;5.43;;
24389;SDS011;12510;56.468;-3.004;2022-12-18T09:06:39;8.27;;;6.63;;
24389;SDS011;12510;56.468;-3.004;2022-12-18T09:09:06;9.60;;;6.82;;
24389;SDS011;12510;56.468;-3.004;2022-12-18T09:11:32;7.88;;;6.40;;
24389;SDS011;12510;56.468;-3.004;2022-12-18T09:13:59;12.68;;;6.72;;
24389;SDS011;12510;56.468;-3.004;2022-12-18T09:16:26;7.07;;;5.53;;
24389;SDS011;12510;56.468;-3.004;2022-12-18T09:18:56;10.88;;;6.32;;
24389;SDS011;12510;56.468;-3.004;2022-12-18T09:21:26;6.65;;;5.93;;
24389;SDS011;12510;56.468;-3.004;2022-12-18T09:23:53;13.90;;;6.35;;
24389;SDS011;12510;56.468;-3.004;2022-12-18T09:26:20;13.38;;;6.55;;
24389;SDS011;12510;56.468;-3.004;2022-12-18T09:28:46;10.52;;;5.72;;
24389;SDS011;12510;56.468;-3.004;2022-12-18T09:31:12;8.98;;;5.22;;
24389;SDS011;12510;56.468;-3.004;2022-12-18T09:33:38;7.18;;;6.47;;
24389;SDS011;12510;56.468;-3.004;2022-12-18T09:36:05;9.93;;;6.35;;
24389;SDS011;12510;56.468;-3.004;2022-12-18T09:38:33;11.00;;;5.13;;
24389;SDS011;12510;56.468;-3.004;2022-12-18T09:41:00;7.20;;;5.80;;
24389;SDS011;12510;56.468;-3.004;2022-12-18T09:45:56;9.75;;;5.85;;
24389;SDS011;12510;56.468;-3.004;2022-12-18T09:48:25;8.60;;;5.53;;
24389;SDS011;12510;56.468;-3.004;2022-12-18T09:50:52;9.05;;;4.70;;
24389;SDS011;12510;56.468;-3.004;2022-12-18T09:53:22;8.80;;;5.55;;
24389;SDS011;12510;56.468;-3.004;2022-12-18T09:55:50;9.45;;;5.50;;
24389;SDS011;12510;56.468;-3.004;2022-12-18T09:58:20;6.43;;;5.13;;
24389;SDS011;12510;56.468;-3.004;2022-12-18T10:00:51;13.90;;;8.57;;
24389;SDS011;12510;56.468;-3.004;2022-12-18T10:03:17;14.30;;;9.10;;
24389;SDS011;12510;56.468;-3.004;2022-12-18T10:05:47;10.02;;;6.90;;
24389;SDS011;12510;56.468;-3.004;2022-12-18T10:10:51;15.90;;;11.50;;
24389;SDS011;12510;56.468;-3.004;2022-12-18T10:15:48;18.08;;;11.63;;
24389;SDS011;12510;56.468;-3.004;2022-12-18T10:20:49;10.93;;;9.43;;
24389;SDS011;12510;56.468;-3.004;2022-12-18T10:28:18;9.93;;;6.25;;
24389;SDS011;12510;56.468;-3.004;2022-12-18T10:30:45;9.60;;;5.15;;
24389;SDS011;12510;56.468;-3.004;2022-12-18T10:33:11;9.68;;;5.93;;
24389;SDS011;12510;56.468;-3.004;2022-12-18T10:35:40;10.35;;;5.25;;
24389;SDS011;12510;56.468;-3.004;2022-12-18T10:40:35;7.45;;;5.15;;
24389;SDS011;12510;56.468;-3.004;2022-12-18T10:43:13;5.13;;;4.03;;
24389;SDS011;12510;56.468;-3.004;2022-12-18T10:45:40;9.15;;;4.93;;
24389;SDS011;12510;56.468;-3.004;2022-12-18T10:48:19;5.22;;;3.80;;
24389;SDS011;12510;56.468;-3.004;2022-12-18T10:53:13;4.50;;;3.63;;
24389;SDS011;12510;56.468;-3.004;2022-12-18T10:55:40;6.32;;;3.00;;
24389;SDS011;12510;56.468;-3.004;2022-12-18T10:58:29;5.47;;;5.07;;
24389;SDS011;12510;56.468;-3.004;2022-12-18T11:01:05;4.68;;;3.45;;
24389;SDS011;12510;56.468;-3.004;2022-12-18T11:03:32;3.03;;;2.72;;
24389;SDS011;12510;56.468;-3.004;2022-12-18T11:06:12;5.50;;;3.03;;
24389;SDS011;12510;56.468;-3.004;2022-12-18T11:08:38;4.10;;;2.95;;
24389;SDS011;12510;56.468;-3.004;2022-12-18T11:11:07;6.10;;;2.90;;
24389;SDS011;12510;56.468;-3.004;2022-12-18T11:13:33;6.17;;;3.10;;
24389;SDS011;12510;56.468;-3.004;2022-12-18T11:16:00;7.00;;;3.00;;
24389;SDS011;12510;56.468;-3.004;2022-12-18T11:18:33;4.28;;;3.97;;
24389;SDS011;12510;56.468;-3.004;2022-12-18T11:21:00;7.45;;;3.70;;
24389;SDS011;12510;56.468;-3.004;2022-12-18T11:23:31;7.93;;;4.43;;
24389;SDS011;12510;56.468;-3.004;2022-12-18T11:25:58;4.57;;;3.45;;
24389;SDS011;12510;56.468;-3.004;2022-12-18T11:28:26;4.22;;;3.25;;
24389;SDS011;12510;56.468;-3.004;2022-12-18T11:31:08;4.25;;;2.63;;
24389;SDS011;12510;56.468;-3.004;2022-12-18T11:33:35;2.70;;;2.22;;
24389;SDS011;12510;56.468;-3.004;2022-12-18T11:36:03;4.40;;;2.40;;
24389;SDS011;12510;56.468;-3.004;2022-12-18T11:40:58;6.40;;;2.85;;
24389;SDS011;12510;56.468;-3.004;2022-12-18T11:43:27;9.13;;;3.58;;
24389;SDS011;12510;56.468;-3.004;2022-12-18T11:45:55;7.38;;;3.95;;
24389;SDS011;12510;56.468;-3.004;2022-12-18T11:48:30;7.90;;;5.38;;
24389;SDS011;12510;56.468;-3.004;2022-12-18T11:50:59;15.85;;;6.13;;
24389;SDS011;12510;56.468;-3.004;2022-12-18T11:53:26;9.18;;;4.72;;
24389;SDS011;12510;56.468;-3.004;2022-12-18T11:58:34;7.28;;;4.15;;
24389;SDS011;12510;56.468;-3.004;2022-12-18T12:01:15;9.20;;;3.70;;
24389;SDS011;12510;56.468;-3.004;2022-12-18T12:03:58;7.65;;;4.13;;
24389;SDS011;12510;56.468;-3.004;2022-12-18T12:06:48;8.70;;;5.80;;
24389;SDS011;12510;56.468;-3.004;2022-12-18T12:09:20;9.80;;;4.97;;
24389;SDS011;12510;56.468;-3.004;2022-12-18T12:14:30;5.50;;;4.05;;
24389;SDS011;12510;56.468;-3.004;2022-12-18T12:16:59;6.97;;;5.32;;
24389;SDS011;12510;56.468;-3.004;2022-12-18T12:20:10;9.77;;;4.47;;
24389;SDS011;12510;56.468;-3.004;2022-12-18T12:30:05;4.93;;;3.53;;
24389;SDS011;12510;56.468;-3.004;2022-12-18T12:37:57;9.57;;;4.47;;
24389;SDS011;12510;56.468;-3.004;2022-12-18T12:40:28;4.25;;;3.85;;
24389;SDS011;12510;56.468;-3.004;2022-12-18T12:42:57;5.57;;;4.28;;
24389;SDS011;12510;56.468;-3.004;2022-12-18T12:46:22;7.82;;;5.00;;
24389;SDS011;12510;56.468;-3.004;2022-12-18T12:48:37;6.30;;;4.25;;
24389;SDS011;12510;56.468;-3.004;2022-12-18T12:51:19;6.43;;;4.13;;
24389;SDS011;12510;56.468;-3.004;2022-12-18T12:53:47;7.20;;;5.05;;
24389;SDS011;12510;56.468;-3.004;2022-12-18T12:56:14;6.78;;;4.70;;
24389;SDS011;12510;56.468;-3.004;2022-12-18T12:58:44;6.03;;;3.90;;
24389;SDS011;12510;56.468;-3.004;2022-12-18T13:01:14;4.75;;;4.18;;
24389;SDS011;12510;56.468;-3.004;2022-12-18T13:08:53;5.93;;;4.47;;
24389;SDS011;12510;56.468;-3.004;2022-12-18T13:14:24;6.07;;;5.45;;
24389;SDS011;12510;56.468;-3.004;2022-12-18T13:16:52;10.65;;;5.60;;
24389;SDS011;12510;56.468;-3.004;2022-12-18T13:19:38;7.13;;;5.60;;
24389;SDS011;12510;56.468;-3.004;2022-12-18T13:22:04;5.70;;;4.95;;
24389;SDS011;12510;56.468;-3.004;2022-12-18T13:24:30;8.05;;;5.40;;
24389;SDS011;12510;56.468;-3.004;2022-12-18T13:26:56;5.85;;;5.00;;
24389;SDS011;12510;56.468;-3.004;2022-12-18T13:29:45;8.52;;;6.25;;
24389;SDS011;12510;56.468;-3.004;2022-12-18T13:32:22;7.82;;;6.22;;
24389;SDS011;12510;56.468;-3.004;2022-12-18T13:34:48;7.90;;;6.82;;
24389;SDS011;12510;56.468;-3.004;2022-12-18T13:37:39;11.80;;;6.35;;
24389;SDS011;12510;56.468;-3.004;2022-12-18T13:42:50;8.18;;;7.03;;
24389;SDS011;12510;56.468;-3.004;2022-12-18T13:45:36;9.77;;;7.90;;
24389;SDS011;12510;56.468;-3.004;2022-12-18T13:48:03;9.38;;;7.40;;
24389;SDS011;12510;56.468;-3.004;2022-12-18T13:50:29;9.25;;;6.88;;
24389;SDS011;12510;56.468;-3.004;2022-12-18T13:52:56;10.38;;;7.53;;
24389;SDS011;12510;56.468;-3.004;2022-12-18T13:55:23;10.45;;;7.63;;
24389;SDS011;12510;56.468;-3.004;2022-12-18T13:57:49;10.35;;;6.55;;
24389;SDS011;12510;56.468;-3.004;2022-12-18T14:02:48;7.68;;;6.78;;
24389;SDS011;12510;56.468;-3.004;2022-12-18T14:05:24;10.23;;;7.35;;
24389;SDS011;12510;56.468;-3.004;2022-12-18T14:07:51;8.52;;;6.80;;
24389;SDS011;12510;56.468;-3.004;2022-12-18T14:10:17;10.48;;;7.93;;
24389;SDS011;12510;56.468;-3.004;2022-12-18T14:12:47;10.40;;;8.35;;
24389;SDS011;12510;56.468;-3.004;2022-12-18T14:18:09;9.45;;;8.27;;
24389;SDS011;12510;56.468;-3.004;2022-12-18T14:20:41;13.27;;;9.13;;
24389;SDS011;12510;56.468;-3.004;2022-12-18T14:25:55;15.70;;;13.98;;
24389;SDS011;12510;56.468;-3.004;2022-12-18T14:28:21;11.05;;;9.35;;
24389;SDS011;12510;56.468;-3.004;2022-12-18T14:30:48;13.55;;;9.23;;
24389;SDS011;12510;56.468;-3.004;2022-12-18T14:35:52;10.95;;;8.27;;
24389;SDS011;12510;56.468;-3.004;2022-12-18T14:40:57;12.38;;;8.98;;
24389;SDS011;12510;56.468;-3.004;2022-12-18T14:43:23;11.23;;;9.00;;
24389;SDS011;12510;56.468;-3.004;2022-12-18T14:45:49;10.07;;;8.05;;
24389;SDS011;12510;56.468;-3.004;2022-12-18T14:48:17;10.73;;;8.60;;
24389;SDS011;12510;56.468;-3.004;2022-12-18T14:50:45;12.55;;;8.23;;
24389;SDS011;12510;56.468;-3.004;2022-12-18T14:53:18;9.80;;;7.43;;
24389;SDS011;12510;56.468;-3.004;2022-12-18T14:55:46;9.50;;;7.88;;
24389;SDS011;12510;56.468;-3.004;2022-12-18T14:58:13;10.38;;;8.57;;
24389;SDS011;12510;56.468;-3.004;2022-12-18T15:00:41;11.20;;;8.30;;
24389;SDS011;12510;56.468;-3.004;2022-12-18T15:03:07;12.90;;;10.10;;
24389;SDS011;12510;56.468;-3.004;2022-12-18T15:05:35;10.45;;;8.10;;
24389;SDS011;12510;56.468;-3.004;2022-12-18T15:08:01;10.65;;;7.20;;
24389;SDS011;12510;56.468;-3.004;2022-12-18T15:18:17;8.70;;;6.53;;
24389;SDS011;12510;56.468;-3.004;2022-12-18T15:20:51;6.80;;;5.72;;
24389;SDS011;12510;56.468;-3.004;2022-12-18T15:23:25;9.40;;;7.15;;
24389;SDS011;12510;56.468;-3.004;2022-12-18T15:25:55;7.90;;;5.60;;
24389;SDS011;12510;56.468;-3.004;2022-12-18T15:28:31;10.50;;;6.70;;
24389;SDS011;12510;56.468;-3.004;2022-12-18T15:30:59;9.75;;;6.75;;
24389;SDS011;12510;56.468;-3.004;2022-12-18T15:33:26;9.20;;;6.43;;
24389;SDS011;12510;56.468;-3.004;2022-12-18T15:35:56;9.65;;;6.57;;
24389;SDS011;12510;56.468;-3.004;2022-12-18T15:38:22;9.73;;;6.15;;
24389;SDS011;12510;56.468;-3.004;2022-12-18T15:40:48;9.30;;;7.72;;
24389;SDS011;12510;56.468;-3.004;2022-12-18T15:43:14;9.00;;;6.32;;
24389;SDS011;12510;56.468;-3.004;2022-12-18T15:46:09;7.38;;;5.93;;
24389;SDS011;12510;56.468;-3.004;2022-12-18T15:48:40;6.47;;;5.22;;
24389;SDS011;12510;56.468;-3.004;2022-12-18T15:53:55;10.85;;;5.80;;
24389;SDS011;12510;56.468;-3.004;2022-12-18T15:59:16;7.80;;;6.28;;
24389;SDS011;12510;56.468;-3.004;2022-12-18T16:01:49;13.73;;;11.68;;
24389;SDS011;12510;56.468;-3.004;2022-12-18T16:04:17;9.18;;;6.88;;
24389;SDS011;12510;56.468;-3.004;2022-12-18T16:06:45;9.50;;;5.85;;
24389;SDS011;12510;56.468;-3.004;2022-12-18T16:09:12;10.20;;;7.22;;
24389;SDS011;12510;56.468;-3.004;2022-12-18T16:11:38;10.73;;;7.07;;
24389;SDS011;12510;56.468;-3.004;2022-12-18T16:14:25;9.57;;;7.65;;
24389;SDS011;12510;56.468;-3.004;2022-12-18T16:16:58;10.82;;;6.50;;
24389;SDS011;12510;56.468;-3.004;2022-12-18T16:19:24;11.00;;;6.97;;
24389;SDS011;12510;56.468;-3.004;2022-12-18T16:21:51;11.88;;;7.68;;